Time;durP1;ratioP1;P1;durP2;ratioP2;P2;SDS_P1;SDS_P2;PMS_P1;PMS_P2;Temp;Humidity;BMP_temperature;BMP_pressure;BME280_temperature;BME280_humidity;BME280_pressure;Samples;Min_cycle;Max_cycle;Signal;HPM_P1;HPM_P2
2021/03/11 00:00:30;;;;;;;60.30;34.10;;;;;;;-4.28;59.16;101550.09;1751383;81;21507;-38
2021/03/11 00:03:00;;;;;;;64.20;32.80;;;;;;;-4.33;59.25;101553.03;1753915;80;21273;-39
2021/03/11 00:05:28;;;;;;;61.43;33.23;;;;;;;-4.34;59.28;101548.66;1754147;80;21691;-39
2021/03/11 00:07:56;;;;;;;59.23;31.83;;;;;;;-4.37;59.37;101545.56;1757270;81;21122;-39
2021/03/11 00:10:24;;;;;;;64.63;31.97;;;;;;;-4.40;59.44;101548.12;1749571;80;21134;-41
2021/03/11 00:12:52;;;;;;;49.67;27.33;;;;;;;-4.42;59.41;101550.23;1756700;80;21121;-39
2021/03/11 00:15:21;;;;;;;47.27;27.50;;;;;;;-4.46;59.48;101551.02;1754450;81;21146;-38
2021/03/11 00:17:48;;;;;;;43.83;22.00;;;;;;;-4.50;59.65;101558.33;1708646;82;21519;-42
2021/03/11 00:20:21;;;;;;;41.17;22.70;;;;;;;-4.55;59.80;101553.02;1758827;80;21137;-45
2021/03/11 00:22:49;;;;;;;43.30;23.87;;;;;;;-4.59;59.97;101549.49;1749135;80;21503;-43
2021/03/11 00:25:18;;;;;;;42.60;22.97;;;;;;;-4.62;60.04;101555.91;1746743;80;21568;-44
2021/03/11 00:27:46;;;;;;;38.97;22.77;;;;;;;-4.67;60.15;101557.55;1747685;81;21133;-46
2021/03/11 00:30:15;;;;;;;41.80;21.30;;;;;;;-4.71;60.26;101550.94;1753623;80;21186;-40
2021/03/11 00:32:43;;;;;;;37.77;21.17;;;;;;;-4.72;60.35;101553.09;1753142;80;21997;-42
2021/03/11 00:35:12;;;;;;;39.07;20.30;;;;;;;-4.73;60.37;101548.32;1755441;80;21158;-41
2021/03/11 00:37:41;;;;;;;39.23;21.13;;;;;;;-4.73;60.33;101552.66;1740298;80;21213;-40
2021/03/11 00:40:12;;;;;;;40.40;21.50;;;;;;;-4.72;60.33;101546.16;1758231;80;22098;-41
2021/03/11 00:42:39;;;;;;;38.00;21.20;;;;;;;-4.69;60.18;101546.64;1758403;81;21175;-48
2021/03/11 00:45:08;;;;;;;38.87;19.67;;;;;;;-4.68;60.12;101548.42;1753240;80;21142;-46
2021/03/11 00:47:37;;;;;;;39.00;23.67;;;;;;;-4.69;60.17;101546.22;1753538;80;21264;-42
2021/03/11 00:50:13;;;;;;;37.40;22.93;;;;;;;-4.67;60.19;101543.66;1730403;81;21288;-41
2021/03/11 00:52:41;;;;;;;44.83;23.03;;;;;;;-4.69;60.11;101534.50;1755910;80;21138;-42
2021/03/11 00:55:11;;;;;;;40.20;21.33;;;;;;;-4.67;60.14;101541.92;1730041;80;21153;-43
2021/03/11 00:57:40;;;;;;;39.83;22.00;;;;;;;-4.65;60.22;101537.63;1753491;80;21609;-41
2021/03/11 01:00:10;;;;;;;40.33;23.10;;;;;;;-4.63;60.15;101529.44;1747700;80;21137;-41
2021/03/11 01:02:49;;;;;;;43.73;23.57;;;;;;;-4.60;60.10;101523.41;1752518;81;21146;-43
2021/03/11 01:05:22;;;;;;;37.43;22.07;;;;;;;-4.60;59.99;101519.51;1748179;81;21145;-41
2021/03/11 01:07:50;;;;;;;35.97;19.77;;;;;;;-4.60;59.79;101517.77;1749477;81;21127;-41
2021/03/11 01:10:17;;;;;;;40.60;21.73;;;;;;;-4.60;59.65;101513.87;1750808;81;21145;-41
2021/03/11 01:12:45;;;;;;;38.97;20.53;;;;;;;-4.59;59.52;101516.04;1749702;81;21126;-40
2021/03/11 01:15:13;;;;;;;42.47;21.80;;;;;;;-4.59;59.44;101518.25;1750168;81;21150;-39
2021/03/11 01:17:41;;;;;;;39.67;22.53;;;;;;;-4.63;59.18;101513.81;1741341;80;21161;-40
2021/03/11 01:20:15;;;;;;;45.97;24.00;;;;;;;-4.64;59.09;101509.86;1684789;83;21161;-40
2021/03/11 01:22:42;;;;;;;41.30;21.37;;;;;;;-4.66;59.13;101505.05;1748753;80;21158;-42
2021/03/11 01:25:11;;;;;;;46.20;23.87;;;;;;;-4.66;59.13;101512.46;1749668;81;21165;-44
2021/03/11 01:27:38;;;;;;;40.77;22.90;;;;;;;-4.67;58.93;101511.98;1747919;81;21594;-42
2021/03/11 01:30:07;;;;;;;38.30;22.07;;;;;;;-4.71;58.68;101514.09;1749423;81;21141;-43
2021/03/11 01:32:35;;;;;;;41.43;21.47;;;;;;;-4.72;58.63;101514.05;1751833;81;21139;-43
2021/03/11 01:35:04;;;;;;;37.23;21.23;;;;;;;-4.75;58.65;101516.16;1699713;82;21220;-44
2021/03/11 01:37:31;;;;;;;39.00;20.80;;;;;;;-4.76;58.82;101513.12;1748781;81;21123;-42
2021/03/11 01:39:59;;;;;;;40.90;22.47;;;;;;;-4.75;58.96;101513.56;1746353;81;21138;-39
2021/03/11 01:42:28;;;;;;;44.23;23.40;;;;;;;-4.73;59.04;101514.91;1749618;81;21146;-39
2021/03/11 01:44:56;;;;;;;43.30;24.53;;;;;;;-4.75;59.13;101508.36;1748545;81;21482;-40
2021/03/11 01:47:23;;;;;;;52.87;25.60;;;;;;;-4.75;59.17;101508.78;1706553;83;21187;-41
2021/03/11 01:49:51;;;;;;;43.23;23.20;;;;;;;-4.75;59.06;101513.99;1751488;81;21138;-41
2021/03/11 01:52:20;;;;;;;47.47;24.63;;;;;;;-4.78;58.97;101508.30;1752980;81;21115;-42
2021/03/11 01:54:48;;;;;;;39.13;21.33;;;;;;;-4.77;58.95;101516.55;1746414;81;21181;-45
2021/03/11 01:57:16;;;;;;;42.00;22.60;;;;;;;-4.76;58.71;101516.13;1751142;81;21143;-41
2021/03/11 01:59:44;;;;;;;41.03;19.80;;;;;;;-4.81;58.54;101522.56;1741718;81;21103;-37
2021/03/11 02:02:12;;;;;;;49.67;25.07;;;;;;;-4.85;58.54;101524.63;1744398;81;21749;-39
2021/03/11 02:04:40;;;;;;;39.00;21.57;;;;;;;-4.87;58.54;101525.89;1750019;80;21224;-38
2021/03/11 02:07:08;;;;;;;36.87;21.93;;;;;;;-4.90;58.47;101523.23;1750268;81;21162;-39
2021/03/11 02:09:35;;;;;;;40.30;22.97;;;;;;;-4.92;58.38;101531.85;1752608;81;21126;-43
2021/03/11 02:12:25;;;;;;;44.80;21.67;;;;;;;-4.93;58.39;101533.58;1745067;81;21138;-44
2021/03/11 02:14:59;;;;;;;35.27;20.97;;;;;;;-4.94;58.38;101542.21;1732871;81;21157;-43
2021/03/11 02:17:31;;;;;;;42.00;23.07;;;;;;;-4.94;58.27;101540.91;1752437;81;21150;-46
2021/03/11 02:20:19;;;;;;;42.30;21.90;;;;;;;-5.00;58.18;101539.06;1742216;81;21130;-39
2021/03/11 02:23:31;;;;;;;35.70;20.93;;;;;;;-5.04;58.28;101537.66;1745091;81;21134;-46
2021/03/11 02:26:39;;;;;;;32.63;17.87;;;;;;;-5.05;58.49;101539.39;1680531;83;21138;-43
2021/03/11 02:29:12;;;;;;;35.93;17.20;;;;;;;-5.08;58.58;101538.02;1673592;83;21609;-38
2021/03/11 02:31:40;;;;;;;34.20;18.47;;;;;;;-5.08;58.71;101544.53;1747993;81;21605;-43
2021/03/11 02:34:17;;;;;;;34.50;19.77;;;;;;;-5.07;58.79;101547.58;1750238;81;21102;-44
2021/03/11 02:36:49;;;;;;;34.10;19.37;;;;;;;-5.05;58.83;101546.32;1747468;81;21121;-45
2021/03/11 02:39:17;;;;;;;35.93;19.53;;;;;;;-5.06;58.96;101545.45;1744156;81;21166;-41
2021/03/11 02:41:44;;;;;;;31.67;18.80;;;;;;;-5.07;58.91;101546.27;1751709;81;21593;-43
2021/03/11 02:44:12;;;;;;;32.40;20.33;;;;;;;-5.09;58.85;101548.38;1752054;81;21562;-43
2021/03/11 02:46:40;;;;;;;29.87;18.37;;;;;;;-5.11;58.89;101539.69;1746153;81;21162;-42
2021/03/11 02:49:08;;;;;;;33.37;18.17;;;;;;;-5.13;58.96;101540.08;1730318;81;21146;-43
2021/03/11 02:51:36;;;;;;;34.60;20.20;;;;;;;-5.13;59.13;101538.34;1750928;80;21717;-41
2021/03/11 02:54:04;;;;;;;36.33;20.50;;;;;;;-5.12;59.29;101534.02;1749981;80;21605;-40
2021/03/11 02:56:32;;;;;;;32.27;18.17;;;;;;;-5.11;59.18;101534.49;1755516;80;21571;-41
2021/03/11 02:58:59;;;;;;;28.43;16.43;;;;;;;-5.16;59.10;101540.89;1752056;80;21635;-42
2021/03/11 03:01:28;;;;;;;27.27;16.17;;;;;;;-5.19;59.15;101543.82;1752954;80;21264;-44
2021/03/11 03:03:56;;;;;;;25.97;15.80;;;;;;;-5.23;59.23;101546.36;1752258;80;21158;-40
2021/03/11 03:06:24;;;;;;;24.07;14.00;;;;;;;-5.28;59.32;101544.08;1740766;80;21173;-41
2021/03/11 03:08:52;;;;;;;20.93;13.63;;;;;;;-5.30;59.40;101544.89;1720093;82;21138;-43
2021/03/11 03:11:21;;;;;;;24.03;15.77;;;;;;;-5.34;59.56;101545.64;1717139;82;21146;-41
2021/03/11 03:13:50;;;;;;;23.87;15.23;;;;;;;-5.37;59.72;101542.98;1714082;82;21138;-42
2021/03/11 03:16:18;;;;;;;27.30;15.10;;;;;;;-5.38;59.82;101542.53;1720648;82;21282;-41
2021/03/11 03:18:46;;;;;;;29.70;16.93;;;;;;;-5.41;59.92;101541.17;1720523;82;21134;-45
2021/03/11 03:21:14;;;;;;;27.60;16.03;;;;;;;-5.41;59.97;101539.88;1702319;83;21288;-44
2021/03/11 03:23:42;;;;;;;28.33;17.13;;;;;;;-5.40;60.03;101541.19;1715097;82;21178;-41
2021/03/11 03:26:10;;;;;;;23.07;15.33;;;;;;;-5.38;60.04;101536.91;1711395;82;21178;-41
2021/03/11 03:28:37;;;;;;;25.33;15.50;;;;;;;-5.35;60.05;101542.17;1714197;82;21137;-43
2021/03/11 03:31:06;;;;;;;30.87;16.03;;;;;;;-5.33;60.06;101543.52;1713652;82;21318;-42
2021/03/11 03:33:34;;;;;;;25.17;16.20;;;;;;;-5.32;59.98;101542.66;1711476;82;21142;-40
2021/03/11 03:36:02;;;;;;;23.80;14.97;;;;;;;-5.33;59.92;101547.42;1713302;82;21144;-42
2021/03/11 03:38:29;;;;;;;26.93;14.73;;;;;;;-5.40;59.83;101551.59;1709821;82;21174;-42
2021/03/11 03:41:01;;;;;;;27.20;16.63;;;;;;;-5.47;59.91;101540.58;1712130;82;21149;-42
2021/03/11 03:43:33;;;;;;;27.27;15.50;;;;;;;-5.53;59.99;101537.42;1712858;82;21111;-46
2021/03/11 03:46:13;;;;;;;27.23;14.83;;;;;;;-5.53;60.04;101537.84;1715769;82;21133;-44
2021/03/11 03:48:52;;;;;;;24.60;14.47;;;;;;;-5.52;60.00;101541.80;1712476;82;21149;-44
2021/03/11 03:51:28;;;;;;;27.87;16.87;;;;;;;-5.53;59.90;101545.22;1712118;82;21150;-40
2021/03/11 03:54:12;;;;;;;26.37;14.97;;;;;;;-5.55;59.82;101554.70;1714453;82;21150;-39
2021/03/11 03:56:44;;;;;;;27.43;15.87;;;;;;;-5.60;59.85;101556.73;1710623;83;21280;-41
2021/03/11 03:59:14;;;;;;;41.23;16.63;;;;;;;-5.62;59.87;101559.28;1714097;82;21699;-39
2021/03/11 04:01:43;;;;;;;;;;;;;;;-5.61;59.93;101557.16;1730368;82;21552;-38
2021/03/11 04:04:12;;;;;;;29.80;15.43;;;;;;;-5.60;60.05;101556.30;1716927;82;20158;-40
2021/03/11 04:06:40;;;;;;;30.53;15.83;;;;;;;-5.58;59.99;101557.23;1732573;81;21991;-40
2021/03/11 04:09:13;;;;;;;27.37;16.30;;;;;;;-5.57;59.92;101547.70;1743464;81;21587;-43
2021/03/11 04:11:42;;;;;;;31.37;17.70;;;;;;;-5.54;59.88;101555.60;1751534;81;21324;-42
2021/03/11 04:14:10;;;;;;;30.33;15.67;;;;;;;-5.53;59.72;101558.22;1742651;81;21285;-44
2021/03/11 04:16:41;;;;;;;32.97;16.23;;;;;;;-5.53;59.46;101558.22;1749455;81;21095;-39
2021/03/11 04:19:09;;;;;;;27.75;15.63;;;;;;;-5.54;59.36;101561.67;1729991;81;21153;-38
2021/03/11 04:21:39;;;;;;;30.47;15.40;;;;;;;-5.57;59.38;101561.61;1752527;81;21154;-39
2021/03/11 04:24:08;;;;;;;29.43;16.70;;;;;;;-5.57;59.42;101566.81;1733532;80;21602;-40
2021/03/11 04:26:36;;;;;;;32.60;20.33;;;;;;;-5.56;59.46;101567.68;1761442;81;21139;-40
2021/03/11 04:29:05;;;;;;;38.67;20.43;;;;;;;-5.56;59.48;101567.68;1751874;81;21142;-44
2021/03/11 04:31:34;;;;;;;43.40;24.60;;;;;;;-5.56;59.59;101571.15;1755032;81;21111;-43
2021/03/11 04:34:02;;;;;;;45.97;22.83;;;;;;;-5.54;59.63;101569.47;1751961;81;21144;-42
2021/03/11 04:36:30;;;;;;;40.13;20.77;;;;;;;-5.53;59.48;101571.64;1750027;81;21162;-40
2021/03/11 04:38:57;;;;;;;37.60;20.80;;;;;;;-5.54;59.46;101576.41;1732493;81;21169;-42
2021/03/11 04:41:26;;;;;;;35.73;20.60;;;;;;;-5.51;59.39;101566.94;1755140;81;21201;-43
2021/03/11 04:43:57;;;;;;;39.30;19.87;;;;;;;-5.50;59.22;101569.98;1744882;81;21286;-40
2021/03/11 04:46:24;;;;;;;;;;;;;;;-5.51;59.04;101561.74;1676760;84;21598;-40
2021/03/11 04:48:52;;;;;;;39.73;19.80;;;;;;;-5.48;59.09;101565.70;1703285;83;20153;-42
2021/03/11 04:51:20;;;;;;;32.73;18.57;;;;;;;-5.47;58.87;101564.89;1728097;81;21272;-40
2021/03/11 04:53:48;;;;;;;35.60;20.10;;;;;;;-5.52;58.78;101566.50;1725211;81;21304;-40
2021/03/11 04:56:16;;;;;;;36.77;19.47;;;;;;;-5.57;58.76;101565.51;1718813;81;21127;-40
2021/03/11 04:58:43;;;;;;;32.20;18.27;;;;;;;-5.59;58.86;101566.28;1748709;81;21174;-41
2021/03/11 05:01:17;;;;;;;38.77;20.37;;;;;;;-5.61;58.95;101564.96;1751977;81;21151;-39
2021/03/11 05:03:45;;;;;;;34.27;19.43;;;;;;;-5.61;59.08;101562.79;1750508;81;21624;-41
2021/03/11 05:06:13;;;;;;;34.50;19.17;;;;;;;-5.62;59.18;101570.98;1752625;80;21165;-40
2021/03/11 05:08:41;;;;;;;40.20;22.50;;;;;;;-5.62;59.25;101580.08;1755806;80;21102;-43
2021/03/11 05:11:11;;;;;;;40.13;20.27;;;;;;;-5.64;59.40;101583.09;1757555;80;21138;-39
2021/03/11 05:13:40;;;;;;;43.58;23.70;;;;;;;-5.64;59.50;101577.89;1749835;81;21139;-39
2021/03/11 05:16:08;;;;;;;42.90;22.53;;;;;;;-5.64;59.64;101576.59;1756739;80;21530;-39
2021/03/11 05:18:37;;;;;;;43.03;21.47;;;;;;;-5.65;59.75;101578.28;1754479;80;21141;-42
2021/03/11 05:21:05;;;;;;;40.07;23.33;;;;;;;-5.61;59.82;101579.26;1756864;81;21142;-37
2021/03/11 05:23:35;;;;;;;38.57;21.13;;;;;;;-5.59;59.72;101584.08;1752636;80;21127;-39
2021/03/11 05:26:02;;;;;;;35.73;21.20;;;;;;;-5.59;59.67;101580.18;1765902;80;21574;-41
2021/03/11 05:28:30;;;;;;;34.70;21.07;;;;;;;-5.58;59.75;101581.92;1753378;80;21110;-41
2021/03/11 05:30:57;;;;;;;34.00;22.60;;;;;;;-5.61;59.92;101584.45;1747504;81;21644;-40
2021/03/11 05:33:25;;;;;;;38.23;21.93;;;;;;;-5.62;60.21;101582.68;1753496;80;21146;-45
2021/03/11 05:35:52;;;;;;;36.53;20.10;;;;;;;-5.62;60.37;101584.41;1753891;80;21134;-40
2021/03/11 05:38:20;;;;;;;34.27;20.33;;;;;;;-5.65;60.69;101583.48;1754932;80;21614;-39
2021/03/11 05:40:53;;;;;;;31.30;21.03;;;;;;;-5.62;61.01;101594.38;1702849;82;21570;-43
2021/03/11 05:43:20;;;;;;;34.83;21.27;;;;;;;-5.60;61.32;101597.03;1757086;80;21191;-38
2021/03/11 05:45:48;;;;;;;35.23;20.50;;;;;;;-5.58;61.63;101604.45;1754820;80;21134;-39
2021/03/11 05:48:16;;;;;;;35.33;21.23;;;;;;;-5.55;61.97;101597.59;1751183;80;21135;-40
2021/03/11 05:50:44;;;;;;;38.17;22.33;;;;;;;-5.50;62.20;101602.48;1754869;80;21149;-48
2021/03/11 05:53:14;;;;;;;36.87;20.73;;;;;;;-5.42;62.44;101600.08;1747778;80;21139;-41
2021/03/11 05:55:42;;;;;;;33.57;18.67;;;;;;;-5.36;62.71;101592.87;1757453;81;21154;-44
2021/03/11 05:58:09;;;;;;;29.73;18.87;;;;;;;-5.29;63.18;101596.95;1760887;80;21194;-44
2021/03/11 06:00:36;;;;;;;32.17;19.23;;;;;;;-5.23;63.62;101593.61;1750338;80;21110;-44
2021/03/11 06:03:05;;;;;;;31.50;18.07;;;;;;;-5.15;64.01;101595.96;1758802;80;21146;-40
2021/03/11 06:05:33;;;;;;;28.97;18.03;;;;;;;-5.06;64.41;101597.48;1738968;81;21158;-40
2021/03/11 06:08:01;;;;;;;33.57;18.57;;;;;;;-4.94;64.75;101603.80;1760855;80;21181;-39
2021/03/11 06:10:28;;;;;;;24.57;15.63;;;;;;;-4.84;64.89;101602.77;1753868;80;21637;-43
2021/03/11 06:12:56;;;;;;;26.77;15.37;;;;;;;-4.72;65.09;101603.86;1757846;80;21641;-45
2021/03/11 06:15:33;;;;;;;25.00;15.47;;;;;;;-4.62;65.26;101600.61;1746753;80;21140;-45
2021/03/11 06:18:02;;;;;;;27.60;15.37;;;;;;;-4.51;65.42;101608.64;1750559;80;21585;-45
2021/03/11 06:20:30;;;;;;;29.50;15.10;;;;;;;-4.40;65.67;101607.16;1757080;80;21145;-47
2021/03/11 06:22:57;;;;;;;26.73;15.23;;;;;;;-4.27;65.88;101613.06;1754966;80;21131;-46
2021/03/11 06:25:25;;;;;;;23.00;14.33;;;;;;;-4.15;65.97;101608.09;1750049;81;21161;-47
2021/03/11 06:27:54;;;;;;;24.73;13.90;;;;;;;-4.02;66.02;101614.84;1713163;80;21162;-45
2021/03/11 06:30:35;;;;;;;23.87;13.73;;;;;;;-3.90;66.02;101622.91;1755991;80;21139;-43
2021/03/11 06:33:05;;;;;;;24.35;13.98;;;;;;;-3.79;66.05;101618.75;1755480;81;21099;-43
2021/03/11 06:35:34;;;;;;;21.83;13.43;;;;;;;-3.67;66.02;101611.59;1759561;80;21546;-44
2021/03/11 06:38:02;;;;;;;21.93;13.60;;;;;;;-3.55;66.00;101612.23;1760060;80;21159;-45
2021/03/11 06:40:30;;;;;;;23.13;15.43;;;;;;;-3.46;66.00;101607.59;1756201;80;21127;-43
2021/03/11 06:43:13;;;;;;;25.53;15.73;;;;;;;-3.37;65.95;101616.45;1759699;80;21963;-44
2021/03/11 06:45:40;;;;;;;23.35;14.33;;;;;;;-3.29;65.79;101618.75;1749834;81;21127;-43
2021/03/11 06:48:25;;;;;;;23.40;14.17;;;;;;;-3.20;65.68;101610.20;1756304;80;21157;-44
2021/03/11 06:50:55;;;;;;;17.90;11.17;;;;;;;-3.11;65.65;101615.98;1753744;80;21541;-46
2021/03/11 06:53:22;;;;;;;15.67;10.50;;;;;;;-3.02;65.61;101617.44;1751083;80;21162;-44
2021/03/11 06:55:50;;;;;;;16.90;10.13;;;;;;;-2.87;65.52;101610.27;1754208;80;21997;-44
2021/03/11 06:58:21;;;;;;;14.90;10.10;;;;;;;-2.70;65.12;101615.70;1757752;80;21126;-46
2021/03/11 07:01:07;;;;;;;15.73;10.47;;;;;;;-2.54;64.87;101606.36;1757494;80;21174;-44
2021/03/11 07:03:41;;;;;;;16.03;9.47;;;;;;;-2.42;64.68;101605.19;1753724;80;21142;-44
2021/03/11 07:06:09;;;;;;;16.53;10.33;;;;;;;-2.32;64.61;101620.12;1751941;80;21134;-45
2021/03/11 07:08:51;;;;;;;16.37;10.27;;;;;;;-2.24;64.10;101620.24;1750884;80;21158;-43
2021/03/11 07:11:19;;;;;;;15.30;9.37;;;;;;;-2.14;63.96;101618.59;1753079;81;21146;-44
2021/03/11 07:13:47;;;;;;;12.43;8.27;;;;;;;-2.04;63.81;101617.83;1750896;81;21153;-53
2021/03/11 07:16:24;;;;;;;14.20;8.77;;;;;;;-1.92;63.43;101617.09;1747647;80;21563;-45
2021/03/11 07:19:18;;;;;;;12.10;7.90;;;;;;;-1.81;62.74;101615.49;1681550;84;21641;-44
2021/03/11 07:21:57;;;;;;;15.90;9.20;;;;;;;-1.68;62.20;101619.98;1753042;80;21521;-46
2021/03/11 07:24:57;;;;;;;15.33;8.20;;;;;;;-1.54;62.00;101618.38;1752053;81;21114;-42
2021/03/11 07:27:40;;;;;;;12.20;7.27;;;;;;;-1.41;61.45;101619.77;1755713;81;21304;-48
2021/03/11 07:30:09;;;;;;;10.77;7.03;;;;;;;-1.28;60.90;101620.78;1752797;80;21150;-46
2021/03/11 07:32:37;;;;;;;11.30;8.10;;;;;;;-1.20;60.43;101608.62;1753048;81;21115;-44
2021/03/11 07:35:07;;;;;;;10.60;6.73;;;;;;;-1.11;59.80;101612.19;1755418;80;21127;-43
2021/03/11 07:37:34;;;;;;;10.73;7.37;;;;;;;-0.98;59.02;101618.83;1756601;80;21173;-43
2021/03/11 07:40:03;;;;;;;10.93;7.50;;;;;;;-0.85;58.72;101615.41;1688741;84;21130;-44
2021/03/11 07:42:31;;;;;;;8.10;6.10;;;;;;;-0.74;57.77;101617.65;1757732;80;21184;-50
2021/03/11 07:44:58;;;;;;;10.27;5.47;;;;;;;-0.66;57.38;101610.73;1708038;82;21151;-49
2021/03/11 07:47:26;;;;;;;10.20;5.43;;;;;;;-0.55;56.65;101614.72;1748497;81;21150;-49
2021/03/11 07:49:54;;;;;;;10.33;5.80;;;;;;;-0.44;55.68;101614.76;1751810;81;21923;-48
2021/03/11 07:52:21;;;;;;;8.53;5.37;;;;;;;-0.32;55.50;101614.81;1748735;80;21170;-48
2021/03/11 07:54:51;;;;;;;11.77;5.33;;;;;;;-0.19;54.55;101617.05;1752122;80;21110;-46
2021/03/11 07:57:20;;;;;;;9.43;5.93;;;;;;;-0.07;53.24;101621.47;1754999;80;21130;-48
2021/03/11 07:59:47;;;;;;;8.70;4.67;;;;;;;0.04;53.01;101618.88;1752398;80;21618;-48
2021/03/11 08:02:16;;;;;;;6.47;4.40;;;;;;;0.15;52.48;101621.08;1755635;80;21146;-48
2021/03/11 08:04:44;;;;;;;8.80;5.10;;;;;;;0.26;52.10;101618.50;1738736;81;21161;-48
2021/03/11 08:07:23;;;;;;;9.60;5.50;;;;;;;0.37;50.76;101616.31;1752658;80;21151;-47
2021/03/11 08:09:56;;;;;;;6.33;5.00;;;;;;;0.43;50.26;101608.46;1754043;81;21309;-54
2021/03/11 08:12:37;;;;;;;11.77;5.50;;;;;;;0.54;50.25;101610.22;1749370;81;21142;-45
2021/03/11 08:15:19;;;;;;;;;;;;;;;0.67;49.59;101610.66;1747909;81;22052;-46
2021/03/11 08:17:56;;;;;;;14.10;6.20;;;;;;;0.78;48.83;101609.33;1748286;81;20162;-46
2021/03/11 08:20:37;;;;;;;8.33;5.07;;;;;;;0.90;48.85;101601.45;1752684;81;22085;-46
2021/03/11 08:23:04;;;;;;;7.33;4.47;;;;;;;1.00;48.83;101600.56;1749500;81;21263;-46
2021/03/11 08:25:38;;;;;;;6.87;5.27;;;;;;;1.10;48.20;101592.67;1752003;81;21129;-47
2021/03/11 08:28:15;;;;;;;7.10;4.70;;;;;;;1.21;46.98;101589.16;1746227;81;21171;-46
2021/03/11 08:30:53;;;;;;;8.93;4.60;;;;;;;1.31;47.11;101586.06;1674550;83;21167;-46
2021/03/11 08:33:29;;;;;;;8.25;4.22;;;;;;;1.40;46.17;101586.02;1751799;81;21539;-47
2021/03/11 08:35:59;;;;;;;5.37;3.77;;;;;;;1.47;45.79;101582.50;1753852;81;21127;-45
2021/03/11 08:38:38;;;;;;;8.58;4.60;;;;;;;1.54;45.23;101572.84;1756403;81;21562;-45
2021/03/11 08:41:09;;;;;;;7.30;4.12;;;;;;;1.61;45.21;101577.61;1754449;81;21604;-49
2021/03/11 08:43:42;;;;;;;6.05;3.75;;;;;;;1.66;44.48;101583.31;1752724;81;21138;-47
2021/03/11 08:46:20;;;;;;;5.20;3.98;;;;;;;1.70;44.04;101578.45;1757481;81;21170;-44
2021/03/11 08:48:54;;;;;;;5.62;3.72;;;;;;;1.74;44.58;101572.75;1752529;80;21534;-49
2021/03/11 08:51:28;;;;;;;4.97;3.30;;;;;;;1.81;43.97;101565.69;1754038;81;21163;-51
2021/03/11 08:54:09;;;;;;;6.00;3.35;;;;;;;1.89;44.22;101565.20;1752329;81;21150;-48
2021/03/11 08:56:37;;;;;;;;;;;;;;;1.95;43.71;101558.61;1758198;81;21126;-46
2021/03/11 08:59:15;;;;;;;6.83;3.77;;;;;;;2.02;43.70;101566.03;1747875;81;20474;-47
2021/03/11 09:01:53;;;;;;;7.07;4.43;;;;;;;2.07;43.67;101562.48;1702039;82;21315;-46
2021/03/11 09:04:27;;;;;;;5.55;3.62;;;;;;;2.13;43.42;101558.92;1709595;82;21143;-46
2021/03/11 09:07:10;;;;;;;4.65;3.40;;;;;;;2.18;42.97;101554.95;1745784;81;21150;-47
2021/03/11 09:09:51;;;;;;;5.10;2.93;;;;;;;2.22;42.87;101559.29;1743848;81;21548;-41
2021/03/11 09:12:25;;;;;;;5.20;3.20;;;;;;;2.25;43.02;101560.16;1748559;81;21562;-42
2021/03/11 09:14:55;;;;;;;4.83;3.10;;;;;;;2.28;42.69;101558.81;1752478;81;21103;-47
2021/03/11 09:17:25;;;;;;;5.12;3.27;;;;;;;2.36;42.21;101552.18;1750006;81;21151;-41
2021/03/11 09:20:03;;;;;;;5.73;3.37;;;;;;;2.41;41.67;101552.14;1752314;80;21115;-44
2021/03/11 09:22:35;;;;;;;7.37;4.13;;;;;;;2.44;41.41;101549.48;1748878;81;21161;-49
2021/03/11 09:25:12;;;;;;;6.10;4.53;;;;;;;2.48;41.66;101553.40;1751539;80;21166;-46
2021/03/11 09:27:59;;;;;;;5.20;3.90;;;;;;;2.54;41.63;101553.78;1747757;81;21131;-44
2021/03/11 09:30:35;;;;;;;7.95;4.37;;;;;;;2.61;41.25;101551.53;1752542;81;21163;-43
2021/03/11 09:33:08;;;;;;;7.58;4.42;;;;;;;2.68;40.70;101551.91;1747483;80;21103;-43
2021/03/11 09:35:36;;;;;;;5.67;3.62;;;;;;;2.71;40.78;101551.02;1749979;81;22003;-43
2021/03/11 09:38:06;;;;;;;5.62;3.83;;;;;;;2.74;40.64;101545.26;1757131;81;21879;-44
2021/03/11 09:40:42;;;;;;;5.08;3.72;;;;;;;2.78;40.83;101546.98;1749161;81;21151;-43
2021/03/11 09:43:17;;;;;;;5.55;3.60;;;;;;;2.85;40.64;101537.70;1752650;80;21672;-46
2021/03/11 09:45:57;;;;;;;7.15;4.08;;;;;;;2.86;40.68;101539.02;1752490;81;21122;-40
2021/03/11 09:48:32;;;;;;;7.65;4.70;;;;;;;2.87;40.15;101541.20;1751062;81;21556;-40
2021/03/11 09:51:05;;;;;;;5.15;4.22;;;;;;;2.86;39.55;101531.11;1743691;81;21157;-45
2021/03/11 09:53:50;;;;;;;5.60;3.70;;;;;;;2.83;40.44;101543.00;1748861;80;21170;-44
2021/03/11 09:56:29;;;;;;;8.48;4.87;;;;;;;2.85;40.88;101546.50;1747342;80;21622;-42
2021/03/11 09:59:05;;;;;;;6.17;3.40;;;;;;;2.93;40.10;101543.34;1749732;81;21138;-41
2021/03/11 10:01:44;;;;;;;6.97;4.12;;;;;;;2.99;40.15;101548.53;1708897;82;21151;-45
2021/03/11 10:04:23;;;;;;;9.80;4.35;;;;;;;3.06;39.40;101543.21;1748666;81;21135;-45
2021/03/11 10:07:04;;;;;;;5.95;4.17;;;;;;;3.13;39.66;101549.72;1753575;80;21142;-43
2021/03/11 10:09:42;;;;;;;5.12;3.83;;;;;;;3.17;39.74;101543.50;1748042;80;21644;-42
2021/03/11 10:12:11;;;;;;;7.53;4.00;;;;;;;3.21;39.92;101539.09;1759732;81;21142;-40
2021/03/11 10:14:42;;;;;;;5.58;3.55;;;;;;;3.27;39.53;101544.28;1758548;80;21725;-41
2021/03/11 10:17:19;;;;;;;6.55;3.55;;;;;;;3.31;39.63;101542.50;1756677;81;22056;-41
2021/03/11 10:19:48;;;;;;;11.70;4.75;;;;;;;3.36;39.25;101538.04;1758840;81;21106;-43
2021/03/11 10:22:17;;;;;;;10.58;3.95;;;;;;;3.41;39.48;101532.27;1754953;80;21114;-45
2021/03/11 10:24:51;;;;;;;7.30;4.55;;;;;;;3.44;39.01;101528.27;1756869;81;21577;-41
2021/03/11 10:27:30;;;;;;;5.92;3.98;;;;;;;3.45;38.73;101524.30;1759733;80;21150;-43
2021/03/11 10:30:11;;;;;;;6.25;4.37;;;;;;;3.49;39.57;101538.30;1774658;80;21319;-42
2021/03/11 10:32:43;;;;;;;7.45;3.98;;;;;;;3.55;38.83;101529.44;1708867;82;21134;-42
2021/03/11 10:35:16;;;;;;;4.62;3.25;;;;;;;3.53;38.62;101528.16;1718601;82;21137;-43
2021/03/11 10:37:44;;;;;;;8.95;4.50;;;;;;;3.51;38.36;101520.70;1713690;81;21814;-41
2021/03/11 10:40:15;;;;;;;4.65;3.00;;;;;;;3.50;39.15;101522.03;1716936;82;21324;-44
2021/03/11 10:42:46;;;;;;;6.87;3.80;;;;;;;3.52;38.81;101521.57;1713500;82;21154;-43
2021/03/11 10:45:25;;;;;;;8.63;3.27;;;;;;;3.55;38.26;101521.52;1715550;82;21153;-43
2021/03/11 10:48:07;;;;;;;8.25;3.60;;;;;;;3.57;37.89;101506.55;1699937;83;21160;-40
2021/03/11 10:50:47;;;;;;;7.05;3.42;;;;;;;3.62;37.56;101498.13;1710684;82;21173;-44
2021/03/11 10:53:16;;;;;;;4.10;3.17;;;;;;;3.67;37.92;101503.77;1696195;83;21760;-45
2021/03/11 10:55:45;;;;;;;5.62;3.75;;;;;;;3.73;37.71;101508.53;1712887;82;21151;-41
2021/03/11 10:58:27;;;;;;;7.33;3.90;;;;;;;3.76;37.66;101498.82;1686117;83;21253;-44
2021/03/11 11:01:13;;;;;;;4.67;3.02;;;;;;;3.78;37.63;101498.78;1685676;83;21166;-44
2021/03/11 11:03:41;;;;;;;7.67;4.60;;;;;;;3.80;38.46;101491.72;1706964;83;21137;-44
2021/03/11 11:06:09;;;;;;;6.30;3.52;;;;;;;3.84;37.66;101486.84;1676530;83;21275;-43
2021/03/11 11:08:39;;;;;;;5.83;3.58;;;;;;;3.87;37.32;101490.74;1698989;84;21480;-42
2021/03/11 11:11:06;;;;;;;5.62;3.37;;;;;;;3.91;37.42;101481.89;1718950;82;21295;-42
2021/03/11 11:13:35;;;;;;;6.12;3.67;;;;;;;3.94;37.33;101473.06;1686406;83;21162;-43
2021/03/11 11:16:03;;;;;;;7.72;4.20;;;;;;;3.95;37.33;101474.33;1701868;84;21276;-46
2021/03/11 11:18:31;;;;;;;6.40;3.58;;;;;;;3.98;37.91;101470.36;1726600;82;21577;-45
2021/03/11 11:20:59;;;;;;;9.10;3.50;;;;;;;3.99;37.41;101474.72;1717304;82;21150;-43
2021/03/11 11:23:27;;;;;;;8.58;3.65;;;;;;;4.00;36.33;101460.61;1710372;83;21659;-44
2021/03/11 11:25:55;;;;;;;5.08;3.08;;;;;;;4.01;36.40;101465.02;1715649;82;21145;-46
2021/03/11 11:28:23;;;;;;;7.95;3.55;;;;;;;4.05;36.71;101461.87;1721112;82;21142;-45
2021/03/11 11:30:50;;;;;;;6.62;4.10;;;;;;;4.08;36.56;101451.25;1703207;83;21582;-46
2021/03/11 11:33:18;;;;;;;5.87;3.52;;;;;;;4.12;36.55;101458.23;1723084;82;21524;-45
2021/03/11 11:35:50;;;;;;;6.28;3.05;;;;;;;4.17;35.38;101459.48;1698225;83;21114;-43
2021/03/11 11:38:19;;;;;;;4.62;3.90;;;;;;;4.15;33.10;101455.54;1695851;83;21181;-43